sensor_id;sensor_type;location;lat;lon;timestamp;pressure;altitude;pressure_sealevel;temperature;humidity
56272;BME280;42177;48.914;18.160;2022-12-05T00:01:30;988.6;;;8.3;94.8
56272;BME280;42177;48.914;18.160;2022-12-05T00:06:29;988.6;;;8.3;94.8
56272;BME280;42177;48.914;18.160;2022-12-05T00:11:30;988.2;;;8.1;93.5
56272;BME280;42177;48.914;18.160;2022-12-05T00:16:30;988.2;;;8.1;93.5
56272;BME280;42177;48.914;18.160;2022-12-05T00:21:30;988.3;;;8.3;93.2
56272;BME280;42177;48.914;18.160;2022-12-05T00:26:29;988.3;;;8.3;93.2
56272;BME280;42177;48.914;18.160;2022-12-05T00:31:29;988.2;;;8.2;93.2
56272;BME280;42177;48.914;18.160;2022-12-05T00:36:30;988.2;;;8.2;93.2
56272;BME280;42177;48.914;18.160;2022-12-05T00:41:29;988.2;;;8.3;93.5
56272;BME280;42177;48.914;18.160;2022-12-05T00:46:29;988.2;;;8.3;93.5
56272;BME280;42177;48.914;18.160;2022-12-05T00:51:29;988.3;;;8.2;93
56272;BME280;42177;48.914;18.160;2022-12-05T00:56:29;988.3;;;8.2;93
56272;BME280;42177;48.914;18.160;2022-12-05T01:01:29;988.5;;;8.4;91.7
56272;BME280;42177;48.914;18.160;2022-12-05T01:06:29;988.5;;;8.4;91.7
56272;BME280;42177;48.914;18.160;2022-12-05T01:11:29;988.8;;;8.4;90.9
56272;BME280;42177;48.914;18.160;2022-12-05T01:16:30;988.8;;;8.4;90.9
56272;BME280;42177;48.914;18.160;2022-12-05T01:21:29;988.2;;;8.2;92.1
56272;BME280;42177;48.914;18.160;2022-12-05T01:26:29;988.2;;;8.2;92.1
56272;BME280;42177;48.914;18.160;2022-12-05T01:31:30;988.6;;;8;92.2
56272;BME280;42177;48.914;18.160;2022-12-05T01:36:29;988.6;;;8;92.2
56272;BME280;42177;48.914;18.160;2022-12-05T01:41:30;988.5;;;8;92.6
56272;BME280;42177;48.914;18.160;2022-12-05T01:46:29;988.5;;;8;92.6
56272;BME280;42177;48.914;18.160;2022-12-05T01:51:29;988.6;;;8;92.7
56272;BME280;42177;48.914;18.160;2022-12-05T01:56:29;988.6;;;8;92.7
56272;BME280;42177;48.914;18.160;2022-12-05T02:01:29;988.3;;;7.8;93.9
56272;BME280;42177;48.914;18.160;2022-12-05T02:06:29;988.3;;;7.8;93.9
56272;BME280;42177;48.914;18.160;2022-12-05T02:11:29;988.2;;;8;94.2
56272;BME280;42177;48.914;18.160;2022-12-05T02:16:31;988.2;;;8;94.2
56272;BME280;42177;48.914;18.160;2022-12-05T02:21:35;988.2;;;7.8;95.4
56272;BME280;42177;48.914;18.160;2022-12-05T02:26:37;988.2;;;7.8;95.4
56272;BME280;42177;48.914;18.160;2022-12-05T02:31:30;988.3;;;7.9;94.7
56272;BME280;42177;48.914;18.160;2022-12-05T02:36:30;988.3;;;7.9;94.7
56272;BME280;42177;48.914;18.160;2022-12-05T02:41:30;988.3;;;7.9;94.2
56272;BME280;42177;48.914;18.160;2022-12-05T02:46:29;988.3;;;7.9;94.2
56272;BME280;42177;48.914;18.160;2022-12-05T02:51:30;988.4;;;8.2;93.6
56272;BME280;42177;48.914;18.160;2022-12-05T02:56:29;988.4;;;8.2;93.6
56272;BME280;42177;48.914;18.160;2022-12-05T03:01:29;988.1;;;8.1;94
56272;BME280;42177;48.914;18.160;2022-12-05T03:06:30;988.1;;;8.1;94
56272;BME280;42177;48.914;18.160;2022-12-05T03:11:30;988.4;;;7.9;94.8
56272;BME280;42177;48.914;18.160;2022-12-05T03:16:30;988.4;;;7.9;94.8
56272;BME280;42177;48.914;18.160;2022-12-05T03:21:29;988.4;;;8.1;93.5
56272;BME280;42177;48.914;18.160;2022-12-05T03:26:32;988.4;;;8.1;93.5
56272;BME280;42177;48.914;18.160;2022-12-05T03:31:32;988.3;;;8.2;93.5
56272;BME280;42177;48.914;18.160;2022-12-05T03:36:31;988.3;;;8.2;93.5
56272;BME280;42177;48.914;18.160;2022-12-05T03:41:31;988.3;;;8.1;93.8
56272;BME280;42177;48.914;18.160;2022-12-05T03:46:29;988.3;;;8.1;93.8
56272;BME280;42177;48.914;18.160;2022-12-05T03:51:31;988.4;;;8.3;93.4
56272;BME280;42177;48.914;18.160;2022-12-05T03:56:30;988.4;;;8.3;93.4
56272;BME280;42177;48.914;18.160;2022-12-05T04:01:29;988.5;;;8.2;94.1
56272;BME280;42177;48.914;18.160;2022-12-05T04:06:29;988.5;;;8.2;94.1
56272;BME280;42177;48.914;18.160;2022-12-05T04:11:29;988.4;;;8.1;93.9
56272;BME280;42177;48.914;18.160;2022-12-05T04:16:30;988.4;;;8.1;93.9
56272;BME280;42177;48.914;18.160;2022-12-05T04:21:29;988.4;;;8.4;93.4
56272;BME280;42177;48.914;18.160;2022-12-05T04:26:29;988.4;;;8.4;93.4
56272;BME280;42177;48.914;18.160;2022-12-05T04:31:30;988.5;;;8.1;93.4
56272;BME280;42177;48.914;18.160;2022-12-05T04:36:30;988.5;;;8.1;93.4
56272;BME280;42177;48.914;18.160;2022-12-05T04:41:30;988.5;;;8.1;94.7
56272;BME280;42177;48.914;18.160;2022-12-05T04:46:29;988.5;;;8.1;94.7
56272;BME280;42177;48.914;18.160;2022-12-05T04:51:29;988.3;;;8.2;94.5
56272;BME280;42177;48.914;18.160;2022-12-05T04:56:29;988.3;;;8.2;94.5
56272;BME280;42177;48.914;18.160;2022-12-05T05:01:29;988.3;;;8.2;94.7
56272;BME280;42177;48.914;18.160;2022-12-05T05:06:29;988.3;;;8.2;94.7
56272;BME280;42177;48.914;18.160;2022-12-05T05:11:30;988.4;;;8.1;95.4
56272;BME280;42177;48.914;18.160;2022-12-05T05:16:30;988.4;;;8.1;95.4
56272;BME280;42177;48.914;18.160;2022-12-05T05:21:30;988.4;;;8.1;95.8
56272;BME280;42177;48.914;18.160;2022-12-05T05:26:29;988.4;;;8.1;95.8
56272;BME280;42177;48.914;18.160;2022-12-05T05:31:30;988.4;;;8.1;95.6
56272;BME280;42177;48.914;18.160;2022-12-05T05:36:29;988.4;;;8.1;95.6
56272;BME280;42177;48.914;18.160;2022-12-05T05:41:29;988.4;;;8.2;95.6
56272;BME280;42177;48.914;18.160;2022-12-05T05:46:29;988.4;;;8.2;95.6
56272;BME280;42177;48.914;18.160;2022-12-05T05:51:29;988.7;;;8.4;94.4
56272;BME280;42177;48.914;18.160;2022-12-05T05:56:29;988.7;;;8.4;94.4
56272;BME280;42177;48.914;18.160;2022-12-05T06:01:29;988.8;;;8.1;95.1
56272;BME280;42177;48.914;18.160;2022-12-05T06:06:29;988.8;;;8.1;95.1
56272;BME280;42177;48.914;18.160;2022-12-05T06:11:29;988.6;;;8.3;95
56272;BME280;42177;48.914;18.160;2022-12-05T06:16:30;988.6;;;8.3;95
56272;BME280;42177;48.914;18.160;2022-12-05T06:21:29;988.9;;;8.5;94
56272;BME280;42177;48.914;18.160;2022-12-05T06:26:29;988.9;;;8.5;94
56272;BME280;42177;48.914;18.160;2022-12-05T06:31:29;988.8;;;8.1;95.4
56272;BME280;42177;48.914;18.160;2022-12-05T06:36:29;988.8;;;8.1;95.4
56272;BME280;42177;48.914;18.160;2022-12-05T06:41:29;988.8;;;8.1;95.3
56272;BME280;42177;48.914;18.160;2022-12-05T06:46:29;988.8;;;8.1;95.3
56272;BME280;42177;48.914;18.160;2022-12-05T06:51:29;989;;;8.4;94.8
56272;BME280;42177;48.914;18.160;2022-12-05T06:56:29;989;;;8.4;94.8
56272;BME280;42177;48.914;18.160;2022-12-05T07:01:29;989;;;8.3;94.8
56272;BME280;42177;48.914;18.160;2022-12-05T07:06:29;989;;;8.3;94.8
56272;BME280;42177;48.914;18.160;2022-12-05T07:11:29;989.2;;;8.4;94.2
56272;BME280;42177;48.914;18.160;2022-12-05T07:16:29;989.2;;;8.4;94.2
56272;BME280;42177;48.914;18.160;2022-12-05T07:21:29;989.1;;;8.4;94.1
56272;BME280;42177;48.914;18.160;2022-12-05T07:26:29;989.1;;;8.4;94.1
56272;BME280;42177;48.914;18.160;2022-12-05T07:31:29;989.1;;;8.4;94.4
56272;BME280;42177;48.914;18.160;2022-12-05T07:36:29;989.1;;;8.4;94.4
56272;BME280;42177;48.914;18.160;2022-12-05T07:41:29;989.2;;;8.4;93.7
56272;BME280;42177;48.914;18.160;2022-12-05T07:46:29;989.2;;;8.4;93.7
56272;BME280;42177;48.914;18.160;2022-12-05T07:51:29;989.2;;;8.4;94.2
56272;BME280;42177;48.914;18.160;2022-12-05T07:56:29;989.2;;;8.4;94.2
56272;BME280;42177;48.914;18.160;2022-12-05T08:01:29;989.2;;;8.5;94.1
56272;BME280;42177;48.914;18.160;2022-12-05T08:06:29;989.2;;;8.5;94.1
56272;BME280;42177;48.914;18.160;2022-12-05T08:11:30;989.4;;;8.4;93.6
56272;BME280;42177;48.914;18.160;2022-12-05T08:16:29;989.4;;;8.4;93.6
56272;BME280;42177;48.914;18.160;2022-12-05T08:21:29;989.4;;;8.7;93.1
56272;BME280;42177;48.914;18.160;2022-12-05T08:26:29;989.4;;;8.7;93.1
56272;BME280;42177;48.914;18.160;2022-12-05T08:31:30;989.6;;;8.7;92.5
56272;BME280;42177;48.914;18.160;2022-12-05T08:36:29;989.6;;;8.7;92.5
56272;BME280;42177;48.914;18.160;2022-12-05T08:41:29;989.5;;;9.1;91.7
56272;BME280;42177;48.914;18.160;2022-12-05T08:46:29;989.5;;;9.1;91.7
56272;BME280;42177;48.914;18.160;2022-12-05T08:51:29;989.5;;;9.1;91.4
56272;BME280;42177;48.914;18.160;2022-12-05T08:56:29;989.5;;;9.1;91.4
56272;BME280;42177;48.914;18.160;2022-12-05T09:01:29;989.4;;;9.1;91.8
56272;BME280;42177;48.914;18.160;2022-12-05T09:06:29;989.4;;;9.1;91.8
56272;BME280;42177;48.914;18.160;2022-12-05T09:11:30;989.6;;;9.2;91.5
56272;BME280;42177;48.914;18.160;2022-12-05T09:16:30;989.6;;;9.2;91.5
56272;BME280;42177;48.914;18.160;2022-12-05T09:21:29;989.5;;;9.4;90.9
56272;BME280;42177;48.914;18.160;2022-12-05T09:26:29;989.5;;;9.4;90.9
56272;BME280;42177;48.914;18.160;2022-12-05T09:31:29;989.5;;;9;92.1
56272;BME280;42177;48.914;18.160;2022-12-05T09:36:29;989.5;;;9;92.1
56272;BME280;42177;48.914;18.160;2022-12-05T09:41:37;989.6;;;9.3;91.5
56272;BME280;42177;48.914;18.160;2022-12-05T09:46:31;989.6;;;9.3;91.5
56272;BME280;42177;48.914;18.160;2022-12-05T09:51:29;989.6;;;9.1;91.7
56272;BME280;42177;48.914;18.160;2022-12-05T09:56:29;989.6;;;9.1;91.7
56272;BME280;42177;48.914;18.160;2022-12-05T10:01:32;989.5;;;9.1;92
56272;BME280;42177;48.914;18.160;2022-12-05T10:06:30;989.5;;;9.1;92
56272;BME280;42177;48.914;18.160;2022-12-05T10:11:30;989.3;;;8.9;92.5
56272;BME280;42177;48.914;18.160;2022-12-05T10:16:30;989.3;;;8.9;92.5
56272;BME280;42177;48.914;18.160;2022-12-05T10:21:29;989.2;;;9;92.3
56272;BME280;42177;48.914;18.160;2022-12-05T10:26:29;989.2;;;9;92.3
56272;BME280;42177;48.914;18.160;2022-12-05T10:31:30;989.2;;;9.1;93
56272;BME280;42177;48.914;18.160;2022-12-05T10:36:29;989.2;;;9.1;93
56272;BME280;42177;48.914;18.160;2022-12-05T10:41:29;989.2;;;9;93
56272;BME280;42177;48.914;18.160;2022-12-05T10:46:29;989.2;;;9;93
56272;BME280;42177;48.914;18.160;2022-12-05T10:51:29;989;;;9.2;92.6
56272;BME280;42177;48.914;18.160;2022-12-05T10:56:37;989;;;9.2;92.6
56272;BME280;42177;48.914;18.160;2022-12-05T11:01:29;989;;;9.1;93.2
56272;BME280;42177;48.914;18.160;2022-12-05T11:06:30;989;;;9.1;93.2
56272;BME280;42177;48.914;18.160;2022-12-05T11:11:29;988.9;;;9.7;90.1
56272;BME280;42177;48.914;18.160;2022-12-05T11:16:29;988.9;;;9.7;90.1
56272;BME280;42177;48.914;18.160;2022-12-05T11:21:29;988.9;;;9.8;90.1
56272;BME280;42177;48.914;18.160;2022-12-05T11:26:32;988.9;;;9.8;90.1
56272;BME280;42177;48.914;18.160;2022-12-05T11:31:29;988.9;;;11.3;81.7
56272;BME280;42177;48.914;18.160;2022-12-05T11:36:34;988.9;;;11.3;81.7
56272;BME280;42177;48.914;18.160;2022-12-05T11:41:35;989;;;10.4;84.6
56272;BME280;42177;48.914;18.160;2022-12-05T11:46:31;989;;;10.4;84.6
56272;BME280;42177;48.914;18.160;2022-12-05T11:51:34;988.9;;;10;87.2
56272;BME280;42177;48.914;18.160;2022-12-05T11:56:32;988.9;;;10;87.2
56272;BME280;42177;48.914;18.160;2022-12-05T12:01:31;988.8;;;10.1;86.4
56272;BME280;42177;48.914;18.160;2022-12-05T12:06:30;988.8;;;10.1;86.4
56272;BME280;42177;48.914;18.160;2022-12-05T12:11:30;988.9;;;10;87.6
56272;BME280;42177;48.914;18.160;2022-12-05T12:16:30;988.9;;;10;87.6
56272;BME280;42177;48.914;18.160;2022-12-05T12:21:31;988.8;;;9.8;88.4
56272;BME280;42177;48.914;18.160;2022-12-05T12:26:31;988.8;;;9.8;88.4
56272;BME280;42177;48.914;18.160;2022-12-05T12:31:33;988.8;;;9.7;89.6
56272;BME280;42177;48.914;18.160;2022-12-05T12:36:30;988.8;;;9.7;89.6
56272;BME280;42177;48.914;18.160;2022-12-05T12:41:41;988.6;;;9.5;91.1
56272;BME280;42177;48.914;18.160;2022-12-05T12:46:32;988.6;;;9.5;91.1
56272;BME280;42177;48.914;18.160;2022-12-05T12:51:30;988.7;;;9.2;92.1
56272;BME280;42177;48.914;18.160;2022-12-05T12:56:30;988.7;;;9.2;92.1
56272;BME280;42177;48.914;18.160;2022-12-05T13:01:30;988.5;;;9.3;92
56272;BME280;42177;48.914;18.160;2022-12-05T13:06:31;988.5;;;9.3;92
56272;BME280;42177;48.914;18.160;2022-12-05T13:11:32;988.6;;;9;93.6
56272;BME280;42177;48.914;18.160;2022-12-05T13:16:29;988.6;;;9;93.6
56272;BME280;42177;48.914;18.160;2022-12-05T13:21:29;988.6;;;9.3;92.9
56272;BME280;42177;48.914;18.160;2022-12-05T13:26:29;988.6;;;9.3;92.9
56272;BME280;42177;48.914;18.160;2022-12-05T13:31:36;988.6;;;9.3;93.3
56272;BME280;42177;48.914;18.160;2022-12-05T13:36:29;988.6;;;9.3;93.3
56272;BME280;42177;48.914;18.160;2022-12-05T13:41:45;988.5;;;9.1;93.7
56272;BME280;42177;48.914;18.160;2022-12-05T13:46:29;988.5;;;9.1;93.7
56272;BME280;42177;48.914;18.160;2022-12-05T13:51:30;988.6;;;9.2;94.1
56272;BME280;42177;48.914;18.160;2022-12-05T13:56:44;988.6;;;9.2;94.1
56272;BME280;42177;48.914;18.160;2022-12-05T14:01:40;988.5;;;9;95.3
56272;BME280;42177;48.914;18.160;2022-12-05T14:06:54;988.5;;;9;95.3
56272;BME280;42177;48.914;18.160;2022-12-05T14:11:29;988.4;;;9.2;93.7
56272;BME280;42177;48.914;18.160;2022-12-05T14:16:41;988.4;;;9.2;93.7
56272;BME280;42177;48.914;18.160;2022-12-05T14:21:34;988.3;;;9.3;93.4
56272;BME280;42177;48.914;18.160;2022-12-05T14:26:32;988.3;;;9.3;93.4
56272;BME280;42177;48.914;18.160;2022-12-05T14:31:32;988.1;;;9.2;93.5
56272;BME280;42177;48.914;18.160;2022-12-05T14:36:29;988.1;;;9.2;93.5
56272;BME280;42177;48.914;18.160;2022-12-05T14:41:30;988.2;;;9.2;93.7
56272;BME280;42177;48.914;18.160;2022-12-05T14:46:29;988.2;;;9.2;93.7
56272;BME280;42177;48.914;18.160;2022-12-05T14:51:53;988.2;;;9.1;94.8
56272;BME280;42177;48.914;18.160;2022-12-05T14:56:29;988.2;;;9.1;94.8
56272;BME280;42177;48.914;18.160;2022-12-05T15:01:30;988;;;9.1;94.6
56272;BME280;42177;48.914;18.160;2022-12-05T15:06:29;988;;;9.1;94.6
56272;BME280;42177;48.914;18.160;2022-12-05T15:11:29;988;;;9.1;94.1
56272;BME280;42177;48.914;18.160;2022-12-05T15:16:29;988;;;9.1;94.1
56272;BME280;42177;48.914;18.160;2022-12-05T15:21:30;988.2;;;9.2;94.4
56272;BME280;42177;48.914;18.160;2022-12-05T15:26:31;988.2;;;9.2;94.4
56272;BME280;42177;48.914;18.160;2022-12-05T15:31:30;988.2;;;9.2;94.4
56272;BME280;42177;48.914;18.160;2022-12-05T15:36:31;988.2;;;9.2;94.4
56272;BME280;42177;48.914;18.160;2022-12-05T15:41:29;988.1;;;9.1;94.7
56272;BME280;42177;48.914;18.160;2022-12-05T15:46:29;988.1;;;9.1;94.7
56272;BME280;42177;48.914;18.160;2022-12-05T15:51:30;988;;;9.5;93.7
56272;BME280;42177;48.914;18.160;2022-12-05T15:56:29;988;;;9.5;93.7
56272;BME280;42177;48.914;18.160;2022-12-05T16:01:29;987.9;;;9.2;93.4
56272;BME280;42177;48.914;18.160;2022-12-05T16:06:30;987.9;;;9.2;93.4
56272;BME280;42177;48.914;18.160;2022-12-05T16:11:29;988.1;;;9.1;94
56272;BME280;42177;48.914;18.160;2022-12-05T16:16:30;988.1;;;9.1;94
56272;BME280;42177;48.914;18.160;2022-12-05T16:21:30;988.2;;;9.2;94.8
56272;BME280;42177;48.914;18.160;2022-12-05T16:26:29;988.2;;;9.2;94.8
56272;BME280;42177;48.914;18.160;2022-12-05T16:31:29;988.3;;;9.2;94.3
56272;BME280;42177;48.914;18.160;2022-12-05T16:36:29;988.3;;;9.2;94.3
56272;BME280;42177;48.914;18.160;2022-12-05T16:41:36;988.3;;;9.4;94
56272;BME280;42177;48.914;18.160;2022-12-05T16:46:40;988.3;;;9.4;94
56272;BME280;42177;48.914;18.160;2022-12-05T16:51:29;988.3;;;9.1;94.4
56272;BME280;42177;48.914;18.160;2022-12-05T16:56:29;988.3;;;9.1;94.4
56272;BME280;42177;48.914;18.160;2022-12-05T17:01:29;988.4;;;9.1;94.8
56272;BME280;42177;48.914;18.160;2022-12-05T17:06:29;988.4;;;9.1;94.8
56272;BME280;42177;48.914;18.160;2022-12-05T17:11:29;988.4;;;9.1;96.1
56272;BME280;42177;48.914;18.160;2022-12-05T17:16:29;988.4;;;9.1;96.1
56272;BME280;42177;48.914;18.160;2022-12-05T17:21:29;988.4;;;9.3;95.2
56272;BME280;42177;48.914;18.160;2022-12-05T17:26:29;988.4;;;9.3;95.2
56272;BME280;42177;48.914;18.160;2022-12-05T17:31:29;988.3;;;9;95.4
56272;BME280;42177;48.914;18.160;2022-12-05T17:36:29;988.3;;;9;95.4
56272;BME280;42177;48.914;18.160;2022-12-05T17:41:29;988.5;;;9;96.6
56272;BME280;42177;48.914;18.160;2022-12-05T17:46:29;988.5;;;9;96.6
56272;BME280;42177;48.914;18.160;2022-12-05T17:51:29;988.6;;;8.9;97.5
56272;BME280;42177;48.914;18.160;2022-12-05T17:56:29;988.6;;;8.9;97.5
56272;BME280;42177;48.914;18.160;2022-12-05T18:01:29;988.4;;;9.1;97.1
56272;BME280;42177;48.914;18.160;2022-12-05T18:06:29;988.4;;;9.1;97.1
56272;BME280;42177;48.914;18.160;2022-12-05T18:11:29;988.3;;;9.2;96.3
56272;BME280;42177;48.914;18.160;2022-12-05T18:16:29;988.3;;;9.2;96.3
56272;BME280;42177;48.914;18.160;2022-12-05T18:21:29;988.4;;;9.2;96.7
56272;BME280;42177;48.914;18.160;2022-12-05T18:26:29;988.4;;;9.2;96.7
56272;BME280;42177;48.914;18.160;2022-12-05T18:31:29;988.5;;;9.1;99
56272;BME280;42177;48.914;18.160;2022-12-05T18:36:29;988.5;;;9.1;99
56272;BME280;42177;48.914;18.160;2022-12-05T18:41:29;988.2;;;9.1;99.9
56272;BME280;42177;48.914;18.160;2022-12-05T18:46:29;988.2;;;9.1;99.9
56272;BME280;42177;48.914;18.160;2022-12-05T18:51:29;988.2;;;8.9;100
56272;BME280;42177;48.914;18.160;2022-12-05T18:56:29;988.2;;;8.9;100
56272;BME280;42177;48.914;18.160;2022-12-05T19:01:29;988.3;;;8.4;100
56272;BME280;42177;48.914;18.160;2022-12-05T19:06:30;988.3;;;8.4;100
56272;BME280;42177;48.914;18.160;2022-12-05T19:11:29;988.1;;;8.5;100
56272;BME280;42177;48.914;18.160;2022-12-05T19:16:29;988.1;;;8.5;100
56272;BME280;42177;48.914;18.160;2022-12-05T19:21:29;987.9;;;8.3;100
56272;BME280;42177;48.914;18.160;2022-12-05T19:26:29;987.9;;;8.3;100
56272;BME280;42177;48.914;18.160;2022-12-05T19:31:29;987.9;;;8.6;100
56272;BME280;42177;48.914;18.160;2022-12-05T19:36:29;987.9;;;8.6;100
56272;BME280;42177;48.914;18.160;2022-12-05T19:41:29;987.9;;;8.5;100
56272;BME280;42177;48.914;18.160;2022-12-05T19:46:29;987.9;;;8.5;100
56272;BME280;42177;48.914;18.160;2022-12-05T19:51:29;987.8;;;8.4;100
56272;BME280;42177;48.914;18.160;2022-12-05T19:56:29;987.8;;;8.4;100
56272;BME280;42177;48.914;18.160;2022-12-05T20:01:29;987.8;;;8.5;100
56272;BME280;42177;48.914;18.160;2022-12-05T20:06:29;987.8;;;8.5;100
56272;BME280;42177;48.914;18.160;2022-12-05T20:11:29;987.7;;;8.5;100
56272;BME280;42177;48.914;18.160;2022-12-05T20:16:29;987.7;;;8.5;100
56272;BME280;42177;48.914;18.160;2022-12-05T20:21:29;987.9;;;8.3;100
56272;BME280;42177;48.914;18.160;2022-12-05T20:26:29;987.9;;;8.3;100
56272;BME280;42177;48.914;18.160;2022-12-05T20:31:29;987.8;;;8.6;100
56272;BME280;42177;48.914;18.160;2022-12-05T20:36:30;987.8;;;8.6;100
56272;BME280;42177;48.914;18.160;2022-12-05T20:41:29;987.9;;;8.4;100
56272;BME280;42177;48.914;18.160;2022-12-05T20:46:29;987.9;;;8.4;100
56272;BME280;42177;48.914;18.160;2022-12-05T20:51:30;987.9;;;8.1;100
56272;BME280;42177;48.914;18.160;2022-12-05T20:56:30;987.9;;;8.1;100
56272;BME280;42177;48.914;18.160;2022-12-05T21:01:31;987.7;;;8.3;100
56272;BME280;42177;48.914;18.160;2022-12-05T21:06:30;987.7;;;8.3;100
56272;BME280;42177;48.914;18.160;2022-12-05T21:11:29;987.7;;;8.1;100
56272;BME280;42177;48.914;18.160;2022-12-05T21:16:29;987.7;;;8.1;100
56272;BME280;42177;48.914;18.160;2022-12-05T21:21:29;987.7;;;8.3;100
56272;BME280;42177;48.914;18.160;2022-12-05T21:26:30;987.7;;;8.3;100
56272;BME280;42177;48.914;18.160;2022-12-05T21:31:30;987.7;;;8.3;100
56272;BME280;42177;48.914;18.160;2022-12-05T21:36:29;987.7;;;8.3;100
56272;BME280;42177;48.914;18.160;2022-12-05T21:41:29;987.5;;;8.3;100
56272;BME280;42177;48.914;18.160;2022-12-05T21:46:29;987.5;;;8.3;100
56272;BME280;42177;48.914;18.160;2022-12-05T21:51:29;987.5;;;8.3;100
56272;BME280;42177;48.914;18.160;2022-12-05T21:56:29;987.5;;;8.3;100
56272;BME280;42177;48.914;18.160;2022-12-05T22:01:29;987.3;;;8.5;100
56272;BME280;42177;48.914;18.160;2022-12-05T22:06:29;987.3;;;8.5;100
56272;BME280;42177;48.914;18.160;2022-12-05T22:11:29;987.3;;;8.5;100
56272;BME280;42177;48.914;18.160;2022-12-05T22:16:29;987.3;;;8.5;100
56272;BME280;42177;48.914;18.160;2022-12-05T22:21:29;987.1;;;8.6;100
56272;BME280;42177;48.914;18.160;2022-12-05T22:26:29;987.1;;;8.6;100
56272;BME280;42177;48.914;18.160;2022-12-05T22:31:29;986.9;;;8.4;100
56272;BME280;42177;48.914;18.160;2022-12-05T22:36:29;986.9;;;8.4;100
56272;BME280;42177;48.914;18.160;2022-12-05T22:41:29;986.7;;;8.5;100
56272;BME280;42177;48.914;18.160;2022-12-05T22:46:29;986.7;;;8.5;100
56272;BME280;42177;48.914;18.160;2022-12-05T22:51:30;986.6;;;8.5;100
56272;BME280;42177;48.914;18.160;2022-12-05T22:56:29;986.6;;;8.5;100
56272;BME280;42177;48.914;18.160;2022-12-05T23:01:29;986.5;;;8.6;100
56272;BME280;42177;48.914;18.160;2022-12-05T23:06:29;986.5;;;8.6;100
56272;BME280;42177;48.914;18.160;2022-12-05T23:11:29;986.5;;;8.4;100
56272;BME280;42177;48.914;18.160;2022-12-05T23:16:29;986.5;;;8.4;100
56272;BME280;42177;48.914;18.160;2022-12-05T23:21:29;986.4;;;8.9;100
56272;BME280;42177;48.914;18.160;2022-12-05T23:26:30;986.4;;;8.9;100
56272;BME280;42177;48.914;18.160;2022-12-05T23:31:29;986.2;;;8.8;100
56272;BME280;42177;48.914;18.160;2022-12-05T23:36:29;986.2;;;8.8;100
56272;BME280;42177;48.914;18.160;2022-12-05T23:41:29;985.9;;;9;100
56272;BME280;42177;48.914;18.160;2022-12-05T23:46:29;985.9;;;9;100
56272;BME280;42177;48.914;18.160;2022-12-05T23:51:29;985.8;;;8.7;100
56272;BME280;42177;48.914;18.160;2022-12-05T23:56:29;985.8;;;8.7;100
